sensor_id;sensor_type;location;lat;lon;timestamp;P1;durP1;ratioP1;P2;durP2;ratioP2
3591;SDS011;1810;48.720;9.094;2023-01-10T00:01:51;381.50;;;364.75;;
3591;SDS011;1810;48.720;9.094;2023-01-10T00:04:22;399.85;;;381.92;;
3591;SDS011;1810;48.720;9.094;2023-01-10T00:06:51;400.98;;;383.08;;
3591;SDS011;1810;48.720;9.094;2023-01-10T00:09:20;415.13;;;396.30;;
3591;SDS011;1810;48.720;9.094;2023-01-10T00:11:48;395.35;;;377.65;;
3591;SDS011;1810;48.720;9.094;2023-01-10T00:14:34;408.08;;;389.65;;
3591;SDS011;1810;48.720;9.094;2023-01-10T00:17:04;413.27;;;394.70;;
3591;SDS011;1810;48.720;9.094;2023-01-10T00:19:32;418.00;;;399.10;;
3591;SDS011;1810;48.720;9.094;2023-01-10T00:22:01;401.25;;;383.00;;
3591;SDS011;1810;48.720;9.094;2023-01-10T00:24:38;393.83;;;376.40;;
3591;SDS011;1810;48.720;9.094;2023-01-10T00:27:08;393.20;;;375.80;;
3591;SDS011;1810;48.720;9.094;2023-01-10T00:29:42;398.13;;;380.38;;
3591;SDS011;1810;48.720;9.094;2023-01-10T00:32:14;406.45;;;388.13;;
3591;SDS011;1810;48.720;9.094;2023-01-10T00:34:42;406.17;;;387.75;;
3591;SDS011;1810;48.720;9.094;2023-01-10T00:37:11;407.88;;;389.42;;
3591;SDS011;1810;48.720;9.094;2023-01-10T00:39:40;408.38;;;390.05;;
3591;SDS011;1810;48.720;9.094;2023-01-10T00:42:09;427.02;;;407.48;;
3591;SDS011;1810;48.720;9.094;2023-01-10T00:44:54;481.95;;;457.73;;
3591;SDS011;1810;48.720;9.094;2023-01-10T00:47:24;398.48;;;380.65;;
3591;SDS011;1810;48.720;9.094;2023-01-10T00:49:53;407.73;;;389.23;;
3591;SDS011;1810;48.720;9.094;2023-01-10T00:52:21;403.65;;;385.45;;
3591;SDS011;1810;48.720;9.094;2023-01-10T00:54:50;401.05;;;382.90;;
3591;SDS011;1810;48.720;9.094;2023-01-10T00:57:18;396.50;;;378.75;;
3591;SDS011;1810;48.720;9.094;2023-01-10T00:59:47;425.80;;;406.30;;
3591;SDS011;1810;48.720;9.094;2023-01-10T01:02:15;399.67;;;381.52;;
3591;SDS011;1810;48.720;9.094;2023-01-10T01:04:45;407.15;;;388.77;;
3591;SDS011;1810;48.720;9.094;2023-01-10T01:07:14;403.20;;;384.95;;
3591;SDS011;1810;48.720;9.094;2023-01-10T01:09:42;395.33;;;377.65;;
3591;SDS011;1810;48.720;9.094;2023-01-10T01:12:24;398.90;;;380.83;;
3591;SDS011;1810;48.720;9.094;2023-01-10T01:14:53;407.13;;;388.80;;
3591;SDS011;1810;48.720;9.094;2023-01-10T01:17:22;412.15;;;393.63;;
3591;SDS011;1810;48.720;9.094;2023-01-10T01:19:51;422.30;;;403.05;;
3591;SDS011;1810;48.720;9.094;2023-01-10T01:22:20;406.45;;;388.17;;
3591;SDS011;1810;48.720;9.094;2023-01-10T01:24:48;430.80;;;411.05;;
3591;SDS011;1810;48.720;9.094;2023-01-10T01:27:17;429.40;;;409.73;;
3591;SDS011;1810;48.720;9.094;2023-01-10T01:29:46;390.15;;;372.42;;
3591;SDS011;1810;48.720;9.094;2023-01-10T01:32:14;426.58;;;407.27;;
3591;SDS011;1810;48.720;9.094;2023-01-10T01:34:43;466.70;;;444.50;;
3591;SDS011;1810;48.720;9.094;2023-01-10T01:37:12;446.95;;;426.35;;
3591;SDS011;1810;48.720;9.094;2023-01-10T01:39:41;464.95;;;443.17;;
3591;SDS011;1810;48.720;9.094;2023-01-10T01:42:16;432.08;;;412.08;;
3591;SDS011;1810;48.720;9.094;2023-01-10T01:45:02;431.50;;;411.67;;
3591;SDS011;1810;48.720;9.094;2023-01-10T01:47:58;432.42;;;412.67;;
3591;SDS011;1810;48.720;9.094;2023-01-10T01:50:32;423.42;;;403.92;;
3591;SDS011;1810;48.720;9.094;2023-01-10T01:53:04;459.17;;;437.50;;
3591;SDS011;1810;48.720;9.094;2023-01-10T01:55:36;502.67;;;478.15;;
3591;SDS011;1810;48.720;9.094;2023-01-10T01:58:07;472.05;;;449.63;;
3591;SDS011;1810;48.720;9.094;2023-01-10T02:00:38;447.40;;;426.45;;
3591;SDS011;1810;48.720;9.094;2023-01-10T02:03:06;461.70;;;440.23;;
3591;SDS011;1810;48.720;9.094;2023-01-10T02:05:35;486.58;;;463.02;;
3591;SDS011;1810;48.720;9.094;2023-01-10T02:08:06;481.55;;;458.35;;
3591;SDS011;1810;48.720;9.094;2023-01-10T02:10:37;478.70;;;455.55;;
3591;SDS011;1810;48.720;9.094;2023-01-10T02:13:09;487.65;;;463.98;;
3591;SDS011;1810;48.720;9.094;2023-01-10T02:15:39;486.80;;;463.33;;
3591;SDS011;1810;48.720;9.094;2023-01-10T02:18:07;443.20;;;422.35;;
3591;SDS011;1810;48.720;9.094;2023-01-10T02:20:38;462.50;;;440.50;;
3591;SDS011;1810;48.720;9.094;2023-01-10T02:23:25;442.15;;;421.38;;
3591;SDS011;1810;48.720;9.094;2023-01-10T02:26:20;490.13;;;466.40;;
3591;SDS011;1810;48.720;9.094;2023-01-10T02:29:34;456.58;;;435.35;;
3591;SDS011;1810;48.720;9.094;2023-01-10T02:32:26;446.17;;;425.27;;
3591;SDS011;1810;48.720;9.094;2023-01-10T02:35:22;484.20;;;461.00;;
3591;SDS011;1810;48.720;9.094;2023-01-10T02:38:03;470.63;;;447.73;;
3591;SDS011;1810;48.720;9.094;2023-01-10T02:40:38;465.98;;;443.70;;
3591;SDS011;1810;48.720;9.094;2023-01-10T02:43:13;475.73;;;452.95;;
3591;SDS011;1810;48.720;9.094;2023-01-10T02:45:45;448.90;;;427.75;;
3591;SDS011;1810;48.720;9.094;2023-01-10T02:48:18;452.95;;;431.60;;
3591;SDS011;1810;48.720;9.094;2023-01-10T02:50:55;408.73;;;390.10;;
3591;SDS011;1810;48.720;9.094;2023-01-10T02:53:26;474.25;;;451.75;;
3591;SDS011;1810;48.720;9.094;2023-01-10T02:56:11;456.02;;;434.88;;
3591;SDS011;1810;48.720;9.094;2023-01-10T02:59:16;471.48;;;448.73;;
3591;SDS011;1810;48.720;9.094;2023-01-10T03:02:07;417.27;;;398.33;;
3591;SDS011;1810;48.720;9.094;2023-01-10T03:04:43;439.98;;;419.70;;
3591;SDS011;1810;48.720;9.094;2023-01-10T03:07:19;511.65;;;486.05;;
3591;SDS011;1810;48.720;9.094;2023-01-10T03:09:53;457.50;;;435.40;;
3591;SDS011;1810;48.720;9.094;2023-01-10T03:12:26;498.67;;;474.10;;
3591;SDS011;1810;48.720;9.094;2023-01-10T03:14:58;535.70;;;508.67;;
3591;SDS011;1810;48.720;9.094;2023-01-10T03:17:27;470.00;;;447.80;;
3591;SDS011;1810;48.720;9.094;2023-01-10T03:19:59;440.35;;;419.88;;
3591;SDS011;1810;48.720;9.094;2023-01-10T03:22:30;486.85;;;463.02;;
3591;SDS011;1810;48.720;9.094;2023-01-10T03:25:01;445.58;;;424.75;;
3591;SDS011;1810;48.720;9.094;2023-01-10T03:27:36;433.58;;;413.38;;
3591;SDS011;1810;48.720;9.094;2023-01-10T03:30:08;453.83;;;432.48;;
3591;SDS011;1810;48.720;9.094;2023-01-10T03:32:42;432.83;;;412.80;;
3591;SDS011;1810;48.720;9.094;2023-01-10T03:35:12;482.80;;;459.55;;
3591;SDS011;1810;48.720;9.094;2023-01-10T03:37:43;425.08;;;405.35;;
3591;SDS011;1810;48.720;9.094;2023-01-10T03:40:15;448.85;;;427.85;;
3591;SDS011;1810;48.720;9.094;2023-01-10T03:42:49;478.50;;;455.60;;
3591;SDS011;1810;48.720;9.094;2023-01-10T03:45:39;455.05;;;433.33;;
3591;SDS011;1810;48.720;9.094;2023-01-10T03:48:11;481.15;;;458.08;;
3591;SDS011;1810;48.720;9.094;2023-01-10T03:50:43;467.55;;;445.30;;
3591;SDS011;1810;48.720;9.094;2023-01-10T03:53:12;469.42;;;446.95;;
3591;SDS011;1810;48.720;9.094;2023-01-10T03:55:42;468.77;;;446.35;;
3591;SDS011;1810;48.720;9.094;2023-01-10T03:58:11;468.25;;;445.98;;
3591;SDS011;1810;48.720;9.094;2023-01-10T04:00:40;441.40;;;420.88;;
3591;SDS011;1810;48.720;9.094;2023-01-10T04:03:08;435.63;;;415.15;;
3591;SDS011;1810;48.720;9.094;2023-01-10T04:05:37;474.70;;;451.98;;
3591;SDS011;1810;48.720;9.094;2023-01-10T04:08:07;449.40;;;428.13;;
3591;SDS011;1810;48.720;9.094;2023-01-10T04:10:35;461.85;;;440.02;;
3591;SDS011;1810;48.720;9.094;2023-01-10T04:13:04;454.58;;;433.17;;
3591;SDS011;1810;48.720;9.094;2023-01-10T04:15:32;458.33;;;436.88;;
3591;SDS011;1810;48.720;9.094;2023-01-10T04:18:01;448.95;;;428.20;;
3591;SDS011;1810;48.720;9.094;2023-01-10T04:20:29;471.48;;;449.15;;
3591;SDS011;1810;48.720;9.094;2023-01-10T04:22:58;462.65;;;440.38;;
3591;SDS011;1810;48.720;9.094;2023-01-10T04:25:27;443.50;;;422.90;;
3591;SDS011;1810;48.720;9.094;2023-01-10T04:27:57;459.95;;;438.20;;
3591;SDS011;1810;48.720;9.094;2023-01-10T04:33:26;444.73;;;423.75;;
3591;SDS011;1810;48.720;9.094;2023-01-10T04:35:56;463.08;;;440.98;;
3591;SDS011;1810;48.720;9.094;2023-01-10T04:38:34;471.55;;;449.08;;
3591;SDS011;1810;48.720;9.094;2023-01-10T04:43:36;405.75;;;387.35;;
3591;SDS011;1810;48.720;9.094;2023-01-10T04:46:06;433.63;;;412.85;;
3591;SDS011;1810;48.720;9.094;2023-01-10T04:48:37;372.15;;;355.83;;
3591;SDS011;1810;48.720;9.094;2023-01-10T04:51:08;395.80;;;377.80;;
3591;SDS011;1810;48.720;9.094;2023-01-10T04:53:40;473.40;;;450.90;;
3591;SDS011;1810;48.720;9.094;2023-01-10T04:56:24;485.57;;;462.20;;
3591;SDS011;1810;48.720;9.094;2023-01-10T04:58:52;439.17;;;418.67;;
3591;SDS011;1810;48.720;9.094;2023-01-10T05:01:21;471.40;;;448.95;;
3591;SDS011;1810;48.720;9.094;2023-01-10T05:03:52;456.42;;;434.70;;
3591;SDS011;1810;48.720;9.094;2023-01-10T05:06:21;465.42;;;443.40;;
3591;SDS011;1810;48.720;9.094;2023-01-10T05:08:50;488.85;;;465.17;;
3591;SDS011;1810;48.720;9.094;2023-01-10T05:11:19;471.30;;;448.88;;
3591;SDS011;1810;48.720;9.094;2023-01-10T05:13:49;469.63;;;447.13;;
3591;SDS011;1810;48.720;9.094;2023-01-10T05:16:17;466.23;;;444.20;;
3591;SDS011;1810;48.720;9.094;2023-01-10T05:18:46;406.00;;;387.33;;
3591;SDS011;1810;48.720;9.094;2023-01-10T05:21:16;479.75;;;456.90;;
3591;SDS011;1810;48.720;9.094;2023-01-10T05:23:45;477.00;;;454.33;;
3591;SDS011;1810;48.720;9.094;2023-01-10T05:26:23;469.52;;;446.95;;
3591;SDS011;1810;48.720;9.094;2023-01-10T05:28:59;446.05;;;425.02;;
3591;SDS011;1810;48.720;9.094;2023-01-10T05:31:34;465.35;;;443.42;;
3591;SDS011;1810;48.720;9.094;2023-01-10T05:34:03;457.73;;;435.73;;
3591;SDS011;1810;48.720;9.094;2023-01-10T05:36:35;411.15;;;392.30;;
3591;SDS011;1810;48.720;9.094;2023-01-10T05:39:30;446.90;;;425.80;;
3591;SDS011;1810;48.720;9.094;2023-01-10T05:41:58;501.92;;;477.13;;
3591;SDS011;1810;48.720;9.094;2023-01-10T05:44:28;470.98;;;448.65;;
3591;SDS011;1810;48.720;9.094;2023-01-10T05:46:57;478.63;;;455.83;;
3591;SDS011;1810;48.720;9.094;2023-01-10T05:52:10;333.70;;;319.23;;
3591;SDS011;1810;48.720;9.094;2023-01-10T05:54:38;419.83;;;399.83;;
3591;SDS011;1810;48.720;9.094;2023-01-10T05:57:07;500.60;;;475.13;;
3591;SDS011;1810;48.720;9.094;2023-01-10T05:59:37;453.30;;;432.10;;
3591;SDS011;1810;48.720;9.094;2023-01-10T06:02:05;322.00;;;308.13;;
3591;SDS011;1810;48.720;9.094;2023-01-10T06:04:34;343.42;;;328.38;;
3591;SDS011;1810;48.720;9.094;2023-01-10T06:07:02;392.98;;;374.98;;
3591;SDS011;1810;48.720;9.094;2023-01-10T06:09:31;440.83;;;420.23;;
3591;SDS011;1810;48.720;9.094;2023-01-10T06:11:59;400.20;;;381.98;;
3591;SDS011;1810;48.720;9.094;2023-01-10T06:14:27;446.73;;;425.30;;
3591;SDS011;1810;48.720;9.094;2023-01-10T06:16:57;393.02;;;375.13;;
3591;SDS011;1810;48.720;9.094;2023-01-10T06:19:25;366.08;;;349.40;;
3591;SDS011;1810;48.720;9.094;2023-01-10T06:21:54;372.65;;;355.88;;
3591;SDS011;1810;48.720;9.094;2023-01-10T06:24:24;419.95;;;400.10;;
3591;SDS011;1810;48.720;9.094;2023-01-10T06:26:52;546.78;;;516.58;;
3591;SDS011;1810;48.720;9.094;2023-01-10T06:29:21;403.08;;;383.67;;
3591;SDS011;1810;48.720;9.094;2023-01-10T06:31:49;592.88;;;559.45;;
3591;SDS011;1810;48.720;9.094;2023-01-10T06:34:19;354.67;;;339.25;;
3591;SDS011;1810;48.720;9.094;2023-01-10T06:36:47;530.65;;;503.23;;
3591;SDS011;1810;48.720;9.094;2023-01-10T06:39:16;385.88;;;368.13;;
3591;SDS011;1810;48.720;9.094;2023-01-10T06:41:44;559.08;;;527.78;;
3591;SDS011;1810;48.720;9.094;2023-01-10T06:44:13;366.33;;;350.10;;
3591;SDS011;1810;48.720;9.094;2023-01-10T06:46:41;377.02;;;360.17;;
3591;SDS011;1810;48.720;9.094;2023-01-10T06:49:10;364.85;;;348.90;;
3591;SDS011;1810;48.720;9.094;2023-01-10T06:51:40;389.33;;;371.98;;
3591;SDS011;1810;48.720;9.094;2023-01-10T06:54:08;357.92;;;342.38;;
3591;SDS011;1810;48.720;9.094;2023-01-10T06:56:37;383.23;;;365.75;;
3591;SDS011;1810;48.720;9.094;2023-01-10T06:59:05;392.25;;;374.48;;
3591;SDS011;1810;48.720;9.094;2023-01-10T07:01:34;429.92;;;409.92;;
3591;SDS011;1810;48.720;9.094;2023-01-10T07:04:03;362.13;;;346.23;;
3591;SDS011;1810;48.720;9.094;2023-01-10T07:06:34;640.88;;;599.15;;
3591;SDS011;1810;48.720;9.094;2023-01-10T07:09:05;401.67;;;383.33;;
3591;SDS011;1810;48.720;9.094;2023-01-10T07:11:34;358.25;;;342.50;;
3591;SDS011;1810;48.720;9.094;2023-01-10T07:14:02;435.00;;;414.02;;
3591;SDS011;1810;48.720;9.094;2023-01-10T07:16:31;463.27;;;440.27;;
3591;SDS011;1810;48.720;9.094;2023-01-10T07:18:59;367.23;;;350.85;;
3591;SDS011;1810;48.720;9.094;2023-01-10T07:21:28;349.85;;;334.77;;
3591;SDS011;1810;48.720;9.094;2023-01-10T07:23:56;327.42;;;313.25;;
3591;SDS011;1810;48.720;9.094;2023-01-10T07:26:29;334.38;;;319.92;;
3591;SDS011;1810;48.720;9.094;2023-01-10T07:28:57;312.63;;;299.48;;
3591;SDS011;1810;48.720;9.094;2023-01-10T07:31:26;319.25;;;305.60;;
3591;SDS011;1810;48.720;9.094;2023-01-10T07:33:54;273.63;;;262.25;;
3591;SDS011;1810;48.720;9.094;2023-01-10T07:36:23;324.85;;;311.33;;
3591;SDS011;1810;48.720;9.094;2023-01-10T07:38:52;404.98;;;385.48;;
3591;SDS011;1810;48.720;9.094;2023-01-10T07:41:21;268.30;;;257.30;;
3591;SDS011;1810;48.720;9.094;2023-01-10T07:43:50;301.65;;;289.02;;
3591;SDS011;1810;48.720;9.094;2023-01-10T07:46:19;321.38;;;307.65;;
3591;SDS011;1810;48.720;9.094;2023-01-10T07:48:47;386.58;;;369.35;;
3591;SDS011;1810;48.720;9.094;2023-01-10T07:51:16;330.90;;;316.70;;
3591;SDS011;1810;48.720;9.094;2023-01-10T07:53:44;301.90;;;289.25;;
3591;SDS011;1810;48.720;9.094;2023-01-10T07:56:13;302.65;;;289.80;;
3591;SDS011;1810;48.720;9.094;2023-01-10T07:58:41;305.05;;;292.33;;
3591;SDS011;1810;48.720;9.094;2023-01-10T08:01:12;341.60;;;326.75;;
3591;SDS011;1810;48.720;9.094;2023-01-10T08:03:41;292.92;;;280.73;;
3591;SDS011;1810;48.720;9.094;2023-01-10T08:06:10;239.43;;;229.80;;
3591;SDS011;1810;48.720;9.094;2023-01-10T08:08:41;220.00;;;211.23;;
3591;SDS011;1810;48.720;9.094;2023-01-10T08:11:10;226.50;;;217.55;;
3591;SDS011;1810;48.720;9.094;2023-01-10T08:13:39;239.32;;;229.02;;
3591;SDS011;1810;48.720;9.094;2023-01-10T08:16:07;140.05;;;134.57;;
3591;SDS011;1810;48.720;9.094;2023-01-10T08:18:37;167.00;;;159.82;;
3591;SDS011;1810;48.720;9.094;2023-01-10T08:21:08;146.60;;;140.80;;
3591;SDS011;1810;48.720;9.094;2023-01-10T08:23:36;194.10;;;186.32;;
3591;SDS011;1810;48.720;9.094;2023-01-10T08:26:05;158.75;;;152.48;;
3591;SDS011;1810;48.720;9.094;2023-01-10T08:28:34;245.68;;;235.02;;
3591;SDS011;1810;48.720;9.094;2023-01-10T08:31:05;146.60;;;140.80;;
3591;SDS011;1810;48.720;9.094;2023-01-10T08:33:35;178.30;;;170.98;;
3591;SDS011;1810;48.720;9.094;2023-01-10T08:36:13;134.93;;;129.50;;
3591;SDS011;1810;48.720;9.094;2023-01-10T08:38:42;162.45;;;155.48;;
3591;SDS011;1810;48.720;9.094;2023-01-10T08:41:10;183.07;;;175.32;;
3591;SDS011;1810;48.720;9.094;2023-01-10T08:43:39;204.18;;;195.68;;
3591;SDS011;1810;48.720;9.094;2023-01-10T08:46:08;183.77;;;176.35;;
3591;SDS011;1810;48.720;9.094;2023-01-10T08:48:38;112.38;;;107.88;;
3591;SDS011;1810;48.720;9.094;2023-01-10T08:51:07;126.63;;;121.50;;
3591;SDS011;1810;48.720;9.094;2023-01-10T08:53:37;85.97;;;82.32;;
3591;SDS011;1810;48.720;9.094;2023-01-10T08:56:06;65.95;;;63.10;;
3591;SDS011;1810;48.720;9.094;2023-01-10T08:58:35;130.93;;;125.00;;
3591;SDS011;1810;48.720;9.094;2023-01-10T09:01:04;432.20;;;409.08;;
3591;SDS011;1810;48.720;9.094;2023-01-10T09:03:33;72.35;;;69.30;;
3591;SDS011;1810;48.720;9.094;2023-01-10T09:06:03;130.85;;;125.55;;
3591;SDS011;1810;48.720;9.094;2023-01-10T09:08:33;93.88;;;89.97;;
3591;SDS011;1810;48.720;9.094;2023-01-10T09:11:02;126.05;;;120.80;;
3591;SDS011;1810;48.720;9.094;2023-01-10T09:13:31;92.63;;;88.82;;
3591;SDS011;1810;48.720;9.094;2023-01-10T09:16:00;151.32;;;145.00;;
3591;SDS011;1810;48.720;9.094;2023-01-10T09:18:29;182.95;;;175.63;;
3591;SDS011;1810;48.720;9.094;2023-01-10T09:20:58;194.00;;;186.02;;
3591;SDS011;1810;48.720;9.094;2023-01-10T09:23:29;115.00;;;110.32;;
3591;SDS011;1810;48.720;9.094;2023-01-10T09:25:58;216.57;;;207.95;;
3591;SDS011;1810;48.720;9.094;2023-01-10T09:28:28;113.43;;;108.78;;
3591;SDS011;1810;48.720;9.094;2023-01-10T09:30:56;98.05;;;93.97;;
3591;SDS011;1810;48.720;9.094;2023-01-10T09:33:26;133.70;;;128.30;;
3591;SDS011;1810;48.720;9.094;2023-01-10T09:36:10;70.63;;;67.73;;
3591;SDS011;1810;48.720;9.094;2023-01-10T09:38:41;225.23;;;214.98;;
3591;SDS011;1810;48.720;9.094;2023-01-10T09:41:16;227.13;;;215.95;;
3591;SDS011;1810;48.720;9.094;2023-01-10T09:43:59;58.65;;;56.08;;
3591;SDS011;1810;48.720;9.094;2023-01-10T09:46:33;292.65;;;277.95;;
3591;SDS011;1810;48.720;9.094;2023-01-10T09:49:11;154.82;;;148.38;;
3591;SDS011;1810;48.720;9.094;2023-01-10T09:51:45;96.50;;;92.38;;
3591;SDS011;1810;48.720;9.094;2023-01-10T09:54:18;91.05;;;87.38;;
3591;SDS011;1810;48.720;9.094;2023-01-10T09:56:51;84.30;;;80.88;;
3591;SDS011;1810;48.720;9.094;2023-01-10T09:59:22;292.33;;;278.52;;
3591;SDS011;1810;48.720;9.094;2023-01-10T10:01:52;80.43;;;77.13;;
3591;SDS011;1810;48.720;9.094;2023-01-10T10:04:26;81.72;;;78.28;;
3591;SDS011;1810;48.720;9.094;2023-01-10T10:06:57;265.10;;;252.63;;
3591;SDS011;1810;48.720;9.094;2023-01-10T10:09:27;131.82;;;126.28;;
3591;SDS011;1810;48.720;9.094;2023-01-10T10:12:01;70.78;;;67.68;;
3591;SDS011;1810;48.720;9.094;2023-01-10T10:14:42;63.83;;;61.00;;
3591;SDS011;1810;48.720;9.094;2023-01-10T10:17:18;85.05;;;81.53;;
3591;SDS011;1810;48.720;9.094;2023-01-10T10:19:59;78.45;;;74.65;;
3591;SDS011;1810;48.720;9.094;2023-01-10T10:22:41;78.40;;;74.80;;
3591;SDS011;1810;48.720;9.094;2023-01-10T10:25:20;122.60;;;116.72;;
3591;SDS011;1810;48.720;9.094;2023-01-10T10:28:04;73.57;;;70.55;;
3591;SDS011;1810;48.720;9.094;2023-01-10T10:30:42;64.53;;;61.78;;
3591;SDS011;1810;48.720;9.094;2023-01-10T10:33:21;111.15;;;106.40;;
3591;SDS011;1810;48.720;9.094;2023-01-10T10:36:00;78.38;;;75.07;;
3591;SDS011;1810;48.720;9.094;2023-01-10T10:38:32;86.07;;;82.53;;
3591;SDS011;1810;48.720;9.094;2023-01-10T10:41:04;72.15;;;69.13;;
3591;SDS011;1810;48.720;9.094;2023-01-10T10:43:42;111.20;;;106.53;;
3591;SDS011;1810;48.720;9.094;2023-01-10T10:46:13;117.93;;;113.30;;
3591;SDS011;1810;48.720;9.094;2023-01-10T10:48:47;101.32;;;97.05;;
3591;SDS011;1810;48.720;9.094;2023-01-10T10:51:18;96.80;;;92.80;;
3591;SDS011;1810;48.720;9.094;2023-01-10T10:53:51;100.40;;;96.27;;
3591;SDS011;1810;48.720;9.094;2023-01-10T10:56:22;71.85;;;68.88;;
3591;SDS011;1810;48.720;9.094;2023-01-10T10:58:52;111.07;;;106.63;;
3591;SDS011;1810;48.720;9.094;2023-01-10T11:01:22;90.00;;;86.43;;
3591;SDS011;1810;48.720;9.094;2023-01-10T11:03:53;88.32;;;84.68;;
3591;SDS011;1810;48.720;9.094;2023-01-10T11:06:27;86.43;;;82.90;;
3591;SDS011;1810;48.720;9.094;2023-01-10T11:09:00;119.45;;;114.15;;
3591;SDS011;1810;48.720;9.094;2023-01-10T11:11:32;82.15;;;78.38;;
3591;SDS011;1810;48.720;9.094;2023-01-10T11:14:03;87.68;;;84.18;;
3591;SDS011;1810;48.720;9.094;2023-01-10T11:16:33;94.53;;;90.70;;
3591;SDS011;1810;48.720;9.094;2023-01-10T11:19:08;90.03;;;86.10;;
3591;SDS011;1810;48.720;9.094;2023-01-10T11:21:41;96.38;;;92.45;;
3591;SDS011;1810;48.720;9.094;2023-01-10T11:24:18;251.30;;;240.02;;
3591;SDS011;1810;48.720;9.094;2023-01-10T11:26:59;91.68;;;87.88;;
3591;SDS011;1810;48.720;9.094;2023-01-10T11:32:07;90.28;;;86.25;;
3591;SDS011;1810;48.720;9.094;2023-01-10T11:34:40;100.57;;;96.47;;
3591;SDS011;1810;48.720;9.094;2023-01-10T11:37:19;88.35;;;84.82;;
3591;SDS011;1810;48.720;9.094;2023-01-10T11:40:01;362.08;;;342.42;;
3591;SDS011;1810;48.720;9.094;2023-01-10T11:42:45;87.22;;;83.47;;
3591;SDS011;1810;48.720;9.094;2023-01-10T11:45:20;109.30;;;104.72;;
3591;SDS011;1810;48.720;9.094;2023-01-10T11:47:52;82.10;;;78.65;;
3591;SDS011;1810;48.720;9.094;2023-01-10T11:50:23;193.48;;;184.50;;
3591;SDS011;1810;48.720;9.094;2023-01-10T11:52:54;287.27;;;271.73;;
3591;SDS011;1810;48.720;9.094;2023-01-10T11:55:23;119.47;;;114.47;;
3591;SDS011;1810;48.720;9.094;2023-01-10T11:57:56;109.80;;;105.35;;
3591;SDS011;1810;48.720;9.094;2023-01-10T12:00:32;134.52;;;129.15;;
3591;SDS011;1810;48.720;9.094;2023-01-10T12:03:14;150.23;;;144.07;;
3591;SDS011;1810;48.720;9.094;2023-01-10T12:05:53;153.63;;;147.52;;
3591;SDS011;1810;48.720;9.094;2023-01-10T12:08:23;204.27;;;195.75;;
3591;SDS011;1810;48.720;9.094;2023-01-10T12:10:57;184.93;;;177.52;;
3591;SDS011;1810;48.720;9.094;2023-01-10T12:13:30;166.15;;;159.55;;
3591;SDS011;1810;48.720;9.094;2023-01-10T12:16:13;152.38;;;146.40;;
3591;SDS011;1810;48.720;9.094;2023-01-10T12:21:17;106.22;;;101.88;;
3591;SDS011;1810;48.720;9.094;2023-01-10T12:24:13;146.20;;;140.32;;
3591;SDS011;1810;48.720;9.094;2023-01-10T12:26:48;228.48;;;217.52;;
3591;SDS011;1810;48.720;9.094;2023-01-10T12:29:21;159.30;;;152.77;;
3591;SDS011;1810;48.720;9.094;2023-01-10T12:31:54;131.68;;;126.30;;
3591;SDS011;1810;48.720;9.094;2023-01-10T12:34:24;131.55;;;126.35;;
3591;SDS011;1810;48.720;9.094;2023-01-10T12:36:58;132.98;;;127.70;;
3591;SDS011;1810;48.720;9.094;2023-01-10T12:39:32;105.20;;;100.97;;
3591;SDS011;1810;48.720;9.094;2023-01-10T12:42:09;310.05;;;295.35;;
3591;SDS011;1810;48.720;9.094;2023-01-10T12:45:04;97.70;;;93.72;;
3591;SDS011;1810;48.720;9.094;2023-01-10T12:47:37;108.40;;;104.10;;
3591;SDS011;1810;48.720;9.094;2023-01-10T12:50:21;245.02;;;234.13;;
3591;SDS011;1810;48.720;9.094;2023-01-10T12:52:53;99.35;;;95.20;;
3591;SDS011;1810;48.720;9.094;2023-01-10T12:55:26;135.27;;;129.65;;
3591;SDS011;1810;48.720;9.094;2023-01-10T12:57:58;106.93;;;102.53;;
3591;SDS011;1810;48.720;9.094;2023-01-10T13:00:30;117.18;;;112.35;;
3591;SDS011;1810;48.720;9.094;2023-01-10T13:03:13;91.45;;;87.65;;
3591;SDS011;1810;48.720;9.094;2023-01-10T13:05:45;178.88;;;171.25;;
3591;SDS011;1810;48.720;9.094;2023-01-10T13:08:15;83.43;;;79.72;;
3591;SDS011;1810;48.720;9.094;2023-01-10T13:10:46;91.40;;;87.60;;
3591;SDS011;1810;48.720;9.094;2023-01-10T13:13:18;194.55;;;186.25;;
3591;SDS011;1810;48.720;9.094;2023-01-10T13:15:55;120.00;;;115.00;;
3591;SDS011;1810;48.720;9.094;2023-01-10T13:18:57;92.80;;;88.97;;
3591;SDS011;1810;48.720;9.094;2023-01-10T13:21:33;83.53;;;80.00;;
3591;SDS011;1810;48.720;9.094;2023-01-10T13:24:06;435.65;;;410.15;;
3591;SDS011;1810;48.720;9.094;2023-01-10T13:27:14;86.88;;;83.25;;
3591;SDS011;1810;48.720;9.094;2023-01-10T13:30:00;195.50;;;186.30;;
3591;SDS011;1810;48.720;9.094;2023-01-10T13:32:34;119.63;;;114.88;;
3591;SDS011;1810;48.720;9.094;2023-01-10T13:35:13;96.50;;;92.53;;
3591;SDS011;1810;48.720;9.094;2023-01-10T13:37:50;87.82;;;84.15;;
3591;SDS011;1810;48.720;9.094;2023-01-10T13:40:20;265.08;;;249.10;;
3591;SDS011;1810;48.720;9.094;2023-01-10T13:52:29;69.50;;;66.40;;
3591;SDS011;1810;48.720;9.094;2023-01-10T13:54:59;98.75;;;94.70;;
3591;SDS011;1810;48.720;9.094;2023-01-10T13:57:47;152.57;;;145.73;;
3591;SDS011;1810;48.720;9.094;2023-01-10T14:06:05;322.45;;;304.92;;
3591;SDS011;1810;48.720;9.094;2023-01-10T14:08:39;120.38;;;115.25;;
3591;SDS011;1810;48.720;9.094;2023-01-10T14:11:10;78.10;;;74.80;;
3591;SDS011;1810;48.720;9.094;2023-01-10T14:13:44;62.45;;;59.55;;
3591;SDS011;1810;48.720;9.094;2023-01-10T14:16:30;182.68;;;174.30;;
3591;SDS011;1810;48.720;9.094;2023-01-10T14:19:01;117.63;;;112.82;;
3591;SDS011;1810;48.720;9.094;2023-01-10T14:21:33;72.53;;;69.43;;
3591;SDS011;1810;48.720;9.094;2023-01-10T14:24:14;139.65;;;133.35;;
3591;SDS011;1810;48.720;9.094;2023-01-10T14:26:52;81.53;;;78.00;;
3591;SDS011;1810;48.720;9.094;2023-01-10T14:29:22;148.65;;;142.45;;
3591;SDS011;1810;48.720;9.094;2023-01-10T14:31:53;75.10;;;71.82;;
3591;SDS011;1810;48.720;9.094;2023-01-10T14:34:22;95.80;;;91.82;;
3591;SDS011;1810;48.720;9.094;2023-01-10T14:36:54;74.13;;;71.05;;
3591;SDS011;1810;48.720;9.094;2023-01-10T14:39:25;126.28;;;121.03;;
3591;SDS011;1810;48.720;9.094;2023-01-10T14:41:55;66.22;;;63.33;;
3591;SDS011;1810;48.720;9.094;2023-01-10T14:44:26;90.90;;;86.78;;
3591;SDS011;1810;48.720;9.094;2023-01-10T14:46:58;50.08;;;47.88;;
3591;SDS011;1810;48.720;9.094;2023-01-10T14:49:28;60.10;;;57.50;;
3591;SDS011;1810;48.720;9.094;2023-01-10T14:52:11;62.75;;;59.88;;
3591;SDS011;1810;48.720;9.094;2023-01-10T14:54:44;53.55;;;51.13;;
3591;SDS011;1810;48.720;9.094;2023-01-10T14:57:16;47.40;;;45.20;;
3591;SDS011;1810;48.720;9.094;2023-01-10T14:59:45;118.45;;;113.30;;
3591;SDS011;1810;48.720;9.094;2023-01-10T15:02:18;60.50;;;57.83;;
3591;SDS011;1810;48.720;9.094;2023-01-10T15:04:58;71.00;;;67.93;;
3591;SDS011;1810;48.720;9.094;2023-01-10T15:10:51;217.25;;;207.23;;
3591;SDS011;1810;48.720;9.094;2023-01-10T15:13:33;74.82;;;71.65;;
3591;SDS011;1810;48.720;9.094;2023-01-10T15:16:11;54.65;;;52.05;;
3591;SDS011;1810;48.720;9.094;2023-01-10T15:18:45;170.40;;;163.00;;
3591;SDS011;1810;48.720;9.094;2023-01-10T15:21:14;47.83;;;44.65;;
3591;SDS011;1810;48.720;9.094;2023-01-10T15:23:56;129.23;;;123.18;;
3591;SDS011;1810;48.720;9.094;2023-01-10T15:26:26;99.28;;;94.82;;
3591;SDS011;1810;48.720;9.094;2023-01-10T15:29:08;171.15;;;163.75;;
3591;SDS011;1810;48.720;9.094;2023-01-10T15:32:26;120.95;;;115.22;;